PIMOHWEATHER Station Historical Data
Daily Summary for October 31, 2020 Units:  Metric    English   Both
Daily Weekly Monthly Yearly
  High: Low: Average:
Temperature: 34.0 °C 26.0 °C 29.9 °C
Dew Point: 24.0 °C 21.0 °C 22.3 °C
Humidity: 81% 52% 65%
Wind Speed: 47km/h 4km/h 18.7km/h
Wind Gust: 68km/h - -
Wind- - ENE
Pressure: 1013.5 hPa 1008.7 hPa -
Precipitation: 0.89 mm    
 
 
Tabular Data for October 31, 2020
Time Temperature Dew Point Pressure Wind Wind Speed Wind Gust Humidity Rainfall Rate (Hourly) solar
00:04 28.0 °C 23.0 °C 1011.7 hPa North 14 km/h 16 km/h 74% 0.00 mm 0.00 W/m2
00:09 29.0 °C 23.0 °C 1011.7 hPa North 18 km/h 24 km/h 74% 0.00 mm 0.00 W/m2
00:14 29.0 °C 24.0 °C 1011.8 hPa North 18 km/h 24 km/h 75% 0.00 mm 0.00 W/m2
00:19 28.0 °C 24.0 °C 1011.8 hPa North 18 km/h 28 km/h 75% 0.00 mm 0.00 W/m2
00:24 28.0 °C 24.0 °C 1011.7 hPa North 21 km/h 24 km/h 75% 0.00 mm 0.00 W/m2
00:29 28.0 °C 23.0 °C 1011.7 hPa North 19 km/h 28 km/h 74% 0.00 mm 0.00 W/m2
00:34 28.0 °C 23.0 °C 1011.7 hPa North 18 km/h 28 km/h 74% 0.00 mm 0.00 W/m2
00:39 28.0 °C 23.0 °C 1011.5 hPa NNE 18 km/h 32 km/h 73% 0.00 mm 0.00 W/m2
00:44 28.0 °C 23.0 °C 1011.6 hPa NNE 15 km/h 24 km/h 73% 0.00 mm 0.00 W/m2
00:49 28.0 °C 23.0 °C 1011.6 hPa North 19 km/h 40 km/h 73% 0.00 mm 0.00 W/m2
00:54 28.0 °C 23.0 °C 1011.5 hPa NNE 14 km/h 28 km/h 72% 0.00 mm 0.00 W/m2
00:59 28.0 °C 23.0 °C 1011.4 hPa NNE 21 km/h 28 km/h 72% 0.00 mm 0.00 W/m2
01:04 28.0 °C 23.0 °C 1011.2 hPa NE 18 km/h 36 km/h 72% 0.00 mm 0.00 W/m2
01:09 28.0 °C 23.0 °C 1011.3 hPa North 19 km/h 28 km/h 72% 0.00 mm 0.00 W/m2
01:14 28.0 °C 23.0 °C 1011.3 hPa North 26 km/h 36 km/h 72% 0.00 mm 0.00 W/m2
01:19 28.0 °C 23.0 °C 1011.3 hPa NNE 26 km/h 32 km/h 72% 0.00 mm 0.00 W/m2
01:24 28.0 °C 23.0 °C 1011.3 hPa NNE 15 km/h 24 km/h 72% 0.00 mm 0.00 W/m2
01:29 28.0 °C 23.0 °C 1011.4 hPa NNE 16 km/h 28 km/h 72% 0.00 mm 0.00 W/m2
01:34 28.0 °C 23.0 °C 1011.3 hPa NNE 15 km/h 24 km/h 72% 0.00 mm 0.00 W/m2
01:39 28.0 °C 23.0 °C 1011.4 hPa NNE 13 km/h 20 km/h 72% 0.00 mm 0.00 W/m2
01:44 28.0 °C 23.0 °C 1011.4 hPa NE 15 km/h 28 km/h 72% 0.00 mm 0.00 W/m2
01:49 28.0 °C 23.0 °C 1011.3 hPa North 17 km/h 24 km/h 72% 0.00 mm 0.00 W/m2
01:54 28.0 °C 23.0 °C 1011.5 hPa North 19 km/h 24 km/h 72% 0.00 mm 0.00 W/m2
01:59 28.0 °C 23.0 °C 1011.4 hPa North 19 km/h 28 km/h 72% 0.00 mm 0.00 W/m2
02:04 28.0 °C 23.0 °C 1011.4 hPa NNE 20 km/h 24 km/h 72% 0.00 mm 0.00 W/m2
02:09 28.0 °C 23.0 °C 1011.3 hPa NNE 11 km/h 16 km/h 72% 0.00 mm 0.00 W/m2
02:14 28.0 °C 23.0 °C 1011.3 hPa NNE 22 km/h 44 km/h 73% 0.00 mm 0.00 W/m2
02:19 28.0 °C 23.0 °C 1011.1 hPa NNE 11 km/h 16 km/h 73% 0.00 mm 0.00 W/m2
02:24 28.0 °C 22.0 °C 1011.2 hPa NNE 17 km/h 24 km/h 73% 0.00 mm 0.00 W/m2
02:29 28.0 °C 22.0 °C 1011.0 hPa NE 19 km/h 36 km/h 73% 0.00 mm 0.00 W/m2
02:34 28.0 °C 22.0 °C 1011.1 hPa NNE 19 km/h 28 km/h 73% 0.00 mm 0.00 W/m2
02:39 28.0 °C 22.0 °C 1011.0 hPa NNE 14 km/h 28 km/h 72% 0.00 mm 0.00 W/m2
02:44 28.0 °C 22.0 °C 1011.0 hPa NNE 17 km/h 24 km/h 72% 0.00 mm 0.00 W/m2
02:49 28.0 °C 22.0 °C 1010.9 hPa NNE 20 km/h 28 km/h 71% 0.00 mm 0.00 W/m2
02:54 28.0 °C 22.0 °C 1011.0 hPa NNE 25 km/h 36 km/h 71% 0.00 mm 0.00 W/m2
02:59 28.0 °C 22.0 °C 1011.0 hPa ENE 17 km/h 24 km/h 71% 0.00 mm 0.00 W/m2
03:04 28.0 °C 22.0 °C 1010.9 hPa NE 17 km/h 32 km/h 70% 0.00 mm 0.00 W/m2
03:09 28.0 °C 22.0 °C 1010.9 hPa NE 18 km/h 24 km/h 69% 0.00 mm 0.00 W/m2
03:14 28.0 °C 22.0 °C 1011.1 hPa NE 17 km/h 24 km/h 69% 0.00 mm 0.00 W/m2
03:19 28.0 °C 22.0 °C 1011.0 hPa NE 23 km/h 36 km/h 69% 0.00 mm 0.00 W/m2
03:24 28.0 °C 22.0 °C 1011.1 hPa North 19 km/h 28 km/h 69% 0.00 mm 0.00 W/m2
03:29 28.0 °C 22.0 °C 1011.2 hPa NE 18 km/h 28 km/h 68% 0.00 mm 0.00 W/m2
03:34 28.0 °C 22.0 °C 1011.2 hPa NE 14 km/h 20 km/h 68% 0.00 mm 0.00 W/m2
03:39 28.0 °C 22.0 °C 1011.3 hPa NNE 14 km/h 24 km/h 68% 0.00 mm 0.00 W/m2
03:44 28.0 °C 22.0 °C 1011.1 hPa NE 22 km/h 28 km/h 67% 0.00 mm 0.00 W/m2
03:49 29.0 °C 21.0 °C 1011.1 hPa NE 17 km/h 24 km/h 66% 0.00 mm 0.00 W/m2
03:54 29.0 °C 21.0 °C 1011.1 hPa ENE 25 km/h 40 km/h 65% 0.00 mm 0.00 W/m2
03:59 29.0 °C 21.0 °C 1011.2 hPa NE 17 km/h 32 km/h 65% 0.00 mm 0.00 W/m2
04:04 29.0 °C 21.0 °C 1011.2 hPa East 30 km/h 40 km/h 65% 0.00 mm 0.00 W/m2
04:09 29.0 °C 21.0 °C 1011.2 hPa NE 18 km/h 24 km/h 65% 0.00 mm 0.00 W/m2
04:14 29.0 °C 21.0 °C 1011.4 hPa NE 14 km/h 20 km/h 65% 0.00 mm 0.00 W/m2
04:19 29.0 °C 21.0 °C 1011.6 hPa NE 20 km/h 28 km/h 65% 0.00 mm 0.00 W/m2
04:24 29.0 °C 21.0 °C 1011.6 hPa NE 18 km/h 24 km/h 65% 0.00 mm 0.00 W/m2
04:29 29.0 °C 21.0 °C 1011.3 hPa NE 15 km/h 20 km/h 65% 0.00 mm 0.00 W/m2
04:34 28.0 °C 21.0 °C 1011.6 hPa NNE 10 km/h 16 km/h 65% 0.00 mm 0.00 W/m2
04:39 28.0 °C 21.0 °C 1011.6 hPa NE 10 km/h 16 km/h 65% 0.00 mm 0.00 W/m2
04:44 28.0 °C 21.0 °C 1011.8 hPa NNE 13 km/h 16 km/h 66% 0.00 mm 0.00 W/m2
04:49 28.0 °C 21.0 °C 1011.5 hPa NNE 8 km/h 12 km/h 66% 0.00 mm 0.00 W/m2
04:54 28.0 °C 21.0 °C 1011.6 hPa NNE 16 km/h 20 km/h 66% 0.00 mm 0.00 W/m2
04:59 28.0 °C 21.0 °C 1011.7 hPa North 13 km/h 20 km/h 67% 0.00 mm 0.00 W/m2
05:04 28.0 °C 21.0 °C 1011.9 hPa North 16 km/h 24 km/h 67% 0.00 mm 0.00 W/m2
05:09 28.0 °C 21.0 °C 1012.0 hPa NNE 13 km/h 20 km/h 67% 0.00 mm 0.00 W/m2
05:14 28.0 °C 21.0 °C 1012.1 hPa NNE 14 km/h 20 km/h 67% 0.00 mm 0.00 W/m2
05:19 28.0 °C 21.0 °C 1012.3 hPa NNE 12 km/h 16 km/h 67% 0.00 mm 0.00 W/m2
05:24 28.0 °C 21.0 °C 1012.3 hPa NNE 8 km/h 16 km/h 67% 0.00 mm 0.00 W/m2
05:29 28.0 °C 21.0 °C 1012.3 hPa NNE 12 km/h 16 km/h 67% 0.00 mm 0.00 W/m2
05:34 28.0 °C 21.0 °C 1012.2 hPa NE 11 km/h 16 km/h 67% 0.00 mm 0.00 W/m2
05:39 28.0 °C 21.0 °C 1012.2 hPa NNE 5 km/h 8 km/h 67% 0.00 mm 0.00 W/m2
05:44 28.0 °C 21.0 °C 1012.4 hPa North 8 km/h 12 km/h 68% 0.00 mm 0.00 W/m2
05:49 28.0 °C 21.0 °C 1012.4 hPa NE 6 km/h 12 km/h 68% 0.00 mm 0.85 W/m2
05:54 28.0 °C 21.0 °C 1012.6 hPa NE 10 km/h 16 km/h 68% 0.00 mm 3.43 W/m2
05:59 28.0 °C 21.0 °C 1012.6 hPa NE 9 km/h 12 km/h 68% 0.00 mm 6.48 W/m2
06:04 28.0 °C 21.0 °C 1012.6 hPa NNE 8 km/h 12 km/h 68% 0.00 mm 11.25 W/m2
06:09 28.0 °C 21.0 °C 1012.5 hPa NNE 5 km/h 8 km/h 68% 0.00 mm 15.53 W/m2
06:14 28.0 °C 22.0 °C 1012.6 hPa North 6 km/h 8 km/h 69% 0.00 mm 24.22 W/m2
06:19 28.0 °C 22.0 °C 1012.6 hPa NNE 6 km/h 12 km/h 69% 0.00 mm 23.36 W/m2
06:24 28.0 °C 22.0 °C 1012.8 hPa NNE 8 km/h 12 km/h 69% 0.00 mm 28.63 W/m2
06:29 28.0 °C 21.0 °C 1012.7 hPa NNE 15 km/h 20 km/h 68% 0.00 mm 39.88 W/m2
06:34 28.0 °C 22.0 °C 1012.8 hPa NNE 8 km/h 12 km/h 68% 0.00 mm 39.39 W/m2
06:39 28.0 °C 21.0 °C 1012.9 hPa North 6 km/h 8 km/h 67% 0.00 mm 45.51 W/m2
06:44 28.0 °C 21.0 °C 1012.8 hPa NNE 9 km/h 12 km/h 67% 0.00 mm 59.82 W/m2
06:49 28.0 °C 22.0 °C 1012.9 hPa NNE 9 km/h 16 km/h 67% 0.00 mm 75.48 W/m2
06:54 29.0 °C 22.0 °C 1013.1 hPa NE 12 km/h 16 km/h 67% 0.00 mm 50.28 W/m2
06:59 29.0 °C 22.0 °C 1013.1 hPa North 9 km/h 12 km/h 67% 0.00 mm 51.14 W/m2
07:04 29.0 °C 22.0 °C 1013.0 hPa North 14 km/h 20 km/h 67% 0.00 mm 53.70 W/m2
07:09 29.0 °C 22.0 °C 1013.1 hPa NNE 13 km/h 16 km/h 67% 0.00 mm 59.82 W/m2
07:14 29.0 °C 22.0 °C 1013.0 hPa North 15 km/h 20 km/h 66% 0.00 mm 61.53 W/m2
07:19 29.0 °C 22.0 °C 1013.2 hPa NNE 10 km/h 12 km/h 66% 0.00 mm 67.16 W/m2
07:24 29.0 °C 22.0 °C 1013.2 hPa NNE 17 km/h 24 km/h 65% 0.00 mm 71.93 W/m2
07:29 29.0 °C 22.0 °C 1013.2 hPa NNE 13 km/h 20 km/h 66% 0.00 mm 71.93 W/m2
07:34 29.0 °C 22.0 °C 1013.4 hPa NE 15 km/h 20 km/h 65% 0.00 mm 72.79 W/m2
07:39 30.0 °C 22.0 °C 1013.3 hPa NE 14 km/h 20 km/h 65% 0.00 mm 78.05 W/m2
07:44 30.0 °C 23.0 °C 1013.5 hPa NNE 14 km/h 24 km/h 65% 0.00 mm 97.13 W/m2
07:49 30.0 °C 22.0 °C 1013.3 hPa NE 20 km/h 24 km/h 64% 0.00 mm 103.13 W/m2
07:54 30.0 °C 22.0 °C 1013.3 hPa NE 18 km/h 20 km/h 63% 0.00 mm 199.53 W/m2
07:59 30.0 °C 23.0 °C 1013.4 hPa NNE 19 km/h 28 km/h 63% 0.00 mm 233.78 W/m2
08:04 30.0 °C 23.0 °C 1013.4 hPa North 14 km/h 28 km/h 63% 0.00 mm 300.95 W/m2
08:09 31.0 °C 22.0 °C 1013.3 hPa NE 21 km/h 28 km/h 62% 0.00 mm 474.54 W/m2
08:14 31.0 °C 22.0 °C 1013.2 hPa NNE 18 km/h 28 km/h 61% 0.00 mm 470.62 W/m2
08:19 31.0 °C 23.0 °C 1013.2 hPa NE 15 km/h 24 km/h 61% 0.00 mm 399.42 W/m2
08:24 31.0 °C 23.0 °C 1013.2 hPa NE 24 km/h 36 km/h 61% 0.00 mm 427.20 W/m2
08:29 31.0 °C 23.0 °C 1013.2 hPa North 35 km/h 56 km/h 62% 0.00 mm 546.11 W/m2
08:34 31.0 °C 23.0 °C 1013.5 hPa North 29 km/h 48 km/h 62% 0.00 mm 622.94 W/m2
08:39 31.0 °C 22.0 °C 1013.3 hPa North 21 km/h 32 km/h 62% 0.00 mm 591.62 W/m2
08:44 31.0 °C 22.0 °C 1013.3 hPa NE 25 km/h 40 km/h 61% 0.00 mm 604.21 W/m2
08:49 31.0 °C 22.0 °C 1013.4 hPa NE 24 km/h 40 km/h 61% 0.00 mm 634.55 W/m2
08:54 31.0 °C 22.0 °C 1013.4 hPa North 34 km/h 61 km/h 60% 0.00 mm 655.48 W/m2
08:59 31.0 °C 22.0 °C 1013.3 hPa NNE 28 km/h 44 km/h 60% 0.00 mm 654.99 W/m2
09:04 31.0 °C 22.0 °C 1013.3 hPa ENE 19 km/h 28 km/h 60% 0.00 mm 651.93 W/m2
09:09 32.0 °C 23.0 °C 1013.2 hPa NE 29 km/h 36 km/h 59% 0.00 mm 659.76 W/m2
09:14 31.0 °C 23.0 °C 1013.2 hPa NE 28 km/h 36 km/h 60% 0.00 mm 588.19 W/m2
09:19 31.0 °C 23.0 °C 1013.3 hPa NE 21 km/h 36 km/h 60% 0.00 mm 635.04 W/m2
09:24 31.0 °C 23.0 °C 1013.3 hPa NNE 29 km/h 44 km/h 61% 0.00 mm 494.11 W/m2
09:29 31.0 °C 23.0 °C 1013.4 hPa NNE 27 km/h 44 km/h 61% 0.00 mm 558.71 W/m2
09:34 31.0 °C 22.0 °C 1013.2 hPa NNE 20 km/h 28 km/h 60% 0.00 mm 683.24 W/m2
09:39 32.0 °C 23.0 °C 1013.2 hPa NNE 21 km/h 32 km/h 59% 0.00 mm 699.64 W/m2
09:44 32.0 °C 23.0 °C 1013.1 hPa NNE 22 km/h 28 km/h 59% 0.00 mm 692.79 W/m2
09:49 32.0 °C 23.0 °C 1013.1 hPa NE 26 km/h 36 km/h 58% 0.00 mm 693.16 W/m2
09:54 32.0 °C 23.0 °C 1013.0 hPa NW 24 km/h 32 km/h 58% 0.00 mm 706.24 W/m2
09:59 32.0 °C 23.0 °C 1013.0 hPa North 25 km/h 44 km/h 58% 0.00 mm 703.19 W/m2
10:04 32.0 °C 23.0 °C 1012.9 hPa NE 29 km/h 40 km/h 57% 0.00 mm 724.84 W/m2
10:09 32.0 °C 23.0 °C 1012.7 hPa NE 27 km/h 44 km/h 57% 0.00 mm 720.92 W/m2
10:14 32.0 °C 23.0 °C 1012.7 hPa ENE 32 km/h 44 km/h 57% 0.00 mm 719.58 W/m2
10:19 32.0 °C 23.0 °C 1012.7 hPa NNE 26 km/h 36 km/h 57% 0.00 mm 734.38 W/m2
10:24 33.0 °C 22.0 °C 1012.6 hPa NE 20 km/h 32 km/h 56% 0.00 mm 738.30 W/m2
10:29 33.0 °C 22.0 °C 1012.7 hPa ENE 27 km/h 40 km/h 55% 0.00 mm 721.41 W/m2
10:34 33.0 °C 22.0 °C 1012.7 hPa NNE 29 km/h 48 km/h 55% 0.00 mm 713.95 W/m2
10:39 33.0 °C 23.0 °C 1012.4 hPa NNE 27 km/h 48 km/h 56% 0.00 mm 729.61 W/m2
10:44 33.0 °C 22.0 °C 1012.2 hPa ENE 24 km/h 28 km/h 55% 0.00 mm 728.26 W/m2
10:49 33.0 °C 23.0 °C 1012.1 hPa ENE 30 km/h 40 km/h 54% 0.00 mm 727.04 W/m2
10:54 33.0 °C 22.0 °C 1012.1 hPa NE 26 km/h 40 km/h 54% 0.00 mm 755.67 W/m2
10:59 33.0 °C 22.0 °C 1012.0 hPa ENE 19 km/h 28 km/h 54% 0.00 mm 778.18 W/m2
11:04 34.0 °C 22.0 °C 1012.0 hPa NNE 28 km/h 40 km/h 53% 0.00 mm 746.12 W/m2
11:09 33.0 °C 22.0 °C 1011.9 hPa NNE 25 km/h 48 km/h 54% 0.00 mm 710.53 W/m2
11:14 33.0 °C 22.0 °C 1011.8 hPa NNE 39 km/h 61 km/h 54% 0.00 mm 710.53 W/m2
11:19 33.0 °C 22.0 °C 1011.6 hPa NNE 26 km/h 40 km/h 53% 0.00 mm 716.16 W/m2
11:24 33.0 °C 22.0 °C 1011.6 hPa NNE 23 km/h 40 km/h 53% 0.00 mm 746.50 W/m2
11:29 33.0 °C 22.0 °C 1011.5 hPa North 33 km/h 48 km/h 53% 0.00 mm 750.41 W/m2
11:34 33.0 °C 22.0 °C 1011.6 hPa North 34 km/h 53 km/h 53% 0.00 mm 753.46 W/m2
11:39 33.0 °C 22.0 °C 1011.4 hPa North 25 km/h 40 km/h 53% 0.00 mm 749.19 W/m2
11:44 33.0 °C 22.0 °C 1011.4 hPa North 24 km/h 48 km/h 53% 0.00 mm 727.04 W/m2
11:49 33.0 °C 22.0 °C 1011.3 hPa ENE 31 km/h 44 km/h 52% 0.00 mm 754.81 W/m2
11:54 33.0 °C 22.0 °C 1011.2 hPa NNE 34 km/h 53 km/h 52% 0.00 mm 755.67 W/m2
11:59 34.0 °C 22.0 °C 1011.1 hPa NE 37 km/h 48 km/h 52% 0.00 mm 801.18 W/m2
12:04 33.0 °C 22.0 °C 1011.3 hPa North 33 km/h 48 km/h 53% 0.00 mm 768.27 W/m2
12:09 33.0 °C 22.0 °C 1011.2 hPa NNE 32 km/h 48 km/h 53% 0.00 mm 763.87 W/m2
12:14 33.0 °C 22.0 °C 1010.9 hPa NNE 33 km/h 48 km/h 52% 0.00 mm 800.81 W/m2
12:19 34.0 °C 22.0 °C 1010.7 hPa NE 28 km/h 40 km/h 52% 0.00 mm 797.26 W/m2
12:24 34.0 °C 22.0 °C 1010.8 hPa NNE 22 km/h 32 km/h 53% 0.00 mm 759.58 W/m2
12:29 33.0 °C 22.0 °C 1010.7 hPa NNE 35 km/h 56 km/h 52% 0.00 mm 747.84 W/m2
12:34 33.0 °C 22.0 °C 1010.7 hPa NNE 33 km/h 61 km/h 52% 0.00 mm 847.17 W/m2
12:39 34.0 °C 22.0 °C 1010.7 hPa NE 35 km/h 64 km/h 52% 0.00 mm 839.83 W/m2
12:44 33.0 °C 23.0 °C 1010.6 hPa North 33 km/h 56 km/h 53% 0.00 mm 819.41 W/m2
12:49 33.0 °C 22.0 °C 1010.4 hPa NNE 29 km/h 48 km/h 53% 0.00 mm 786.87 W/m2
12:54 33.0 °C 22.0 °C 1010.4 hPa North 39 km/h 61 km/h 52% 0.00 mm 739.64 W/m2
12:59 33.0 °C 22.0 °C 1010.3 hPa North 34 km/h 56 km/h 52% 0.00 mm 743.56 W/m2
13:04 33.0 °C 22.0 °C 1010.3 hPa ENE 39 km/h 56 km/h 53% 0.00 mm 714.44 W/m2
13:09 34.0 °C 22.0 °C 1010.4 hPa NNE 32 km/h 44 km/h 53% 0.00 mm 751.75 W/m2
13:14 34.0 °C 23.0 °C 1010.2 hPa NE 30 km/h 44 km/h 53% 0.00 mm 760.44 W/m2
13:19 33.0 °C 22.0 °C 1010.2 hPa NE 30 km/h 44 km/h 53% 0.00 mm 749.19 W/m2
13:24 33.0 °C 23.0 °C 1010.2 hPa North 30 km/h 48 km/h 53% 0.00 mm 813.78 W/m2
13:29 34.0 °C 22.0 °C 1010.2 hPa NE 22 km/h 36 km/h 53% 0.00 mm 797.26 W/m2
13:34 34.0 °C 22.0 °C 1010.2 hPa NNE 23 km/h 36 km/h 53% 0.00 mm 709.18 W/m2
13:39 34.0 °C 22.0 °C 1010.4 hPa NNE 30 km/h 56 km/h 52% 0.00 mm 641.53 W/m2
13:44 33.0 °C 22.0 °C 1010.1 hPa NNE 38 km/h 53 km/h 52% 0.00 mm 614.25 W/m2
13:49 33.0 °C 22.0 °C 1009.9 hPa NE 31 km/h 48 km/h 53% 0.00 mm 607.77 W/m2
13:54 33.0 °C 22.0 °C 1009.7 hPa NE 30 km/h 53 km/h 53% 0.00 mm 600.79 W/m2
13:59 33.0 °C 22.0 °C 1009.7 hPa NE 38 km/h 64 km/h 53% 0.00 mm 596.02 W/m2
14:04 33.0 °C 22.0 °C 1009.9 hPa NE 32 km/h 53 km/h 54% 0.00 mm 575.22 W/m2
14:09 33.0 °C 22.0 °C 1009.6 hPa NE 34 km/h 44 km/h 54% 0.00 mm 539.62 W/m2
14:14 33.0 °C 22.0 °C 1009.5 hPa ENE 47 km/h 68 km/h 54% 0.00 mm 546.96 W/m2
14:19 33.0 °C 22.0 °C 1009.5 hPa North 25 km/h 36 km/h 54% 0.00 mm 526.16 W/m2
14:24 33.0 °C 23.0 °C 1009.4 hPa North 19 km/h 36 km/h 53% 0.00 mm 496.20 W/m2
14:29 33.0 °C 23.0 °C 1009.4 hPa NE 27 km/h 44 km/h 53% 0.00 mm 491.91 W/m2
14:34 33.0 °C 23.0 °C 1009.3 hPa ENE 24 km/h 36 km/h 54% 0.00 mm 485.43 W/m2
14:39 33.0 °C 22.0 °C 1009.2 hPa NE 21 km/h 36 km/h 54% 0.00 mm 142.27 W/m2
14:44 33.0 °C 22.0 °C 1009.5 hPa NNE 24 km/h 36 km/h 53% 0.00 mm 160.02 W/m2
14:49 33.0 °C 22.0 °C 1009.3 hPa North 27 km/h 40 km/h 54% 0.00 mm 160.02 W/m2
14:54 33.0 °C 22.0 °C 1009.2 hPa NNE 27 km/h 40 km/h 54% 0.00 mm 130.04 W/m2
14:59 33.0 °C 23.0 °C 1009.1 hPa NE 19 km/h 24 km/h 54% 0.00 mm 97.99 W/m2
15:04 33.0 °C 23.0 °C 1008.9 hPa NE 20 km/h 28 km/h 55% 0.00 mm 94.56 W/m2
15:09 33.0 °C 22.0 °C 1008.9 hPa NNE 20 km/h 36 km/h 55% 0.00 mm 100.56 W/m2
15:14 33.0 °C 22.0 °C 1008.9 hPa NE 27 km/h 36 km/h 55% 0.00 mm 101.41 W/m2
15:19 33.0 °C 22.0 °C 1008.8 hPa NNE 26 km/h 40 km/h 54% 0.00 mm 99.70 W/m2
15:24 33.0 °C 22.0 °C 1008.9 hPa NNE 24 km/h 36 km/h 53% 0.00 mm 89.31 W/m2
15:29 33.0 °C 22.0 °C 1008.9 hPa ENE 20 km/h 32 km/h 54% 0.00 mm 84.53 W/m2
15:34 33.0 °C 22.0 °C 1008.7 hPa NNE 20 km/h 24 km/h 54% 0.00 mm 78.90 W/m2
15:39 32.0 °C 22.0 °C 1008.9 hPa NE 17 km/h 24 km/h 54% 0.00 mm 78.41 W/m2
15:44 32.0 °C 22.0 °C 1008.8 hPa NNE 30 km/h 48 km/h 53% 0.00 mm 78.90 W/m2
15:49 32.0 °C 22.0 °C 1008.9 hPa North 25 km/h 36 km/h 54% 0.00 mm 80.62 W/m2
15:54 32.0 °C 21.0 °C 1008.9 hPa ENE 20 km/h 28 km/h 54% 0.00 mm 81.10 W/m2
15:59 32.0 °C 21.0 °C 1008.8 hPa NE 17 km/h 28 km/h 54% 0.00 mm 88.82 W/m2
16:04 32.0 °C 21.0 °C 1008.8 hPa ENE 30 km/h 40 km/h 54% 0.00 mm 88.82 W/m2
16:09 32.0 °C 21.0 °C 1008.8 hPa ENE 23 km/h 32 km/h 54% 0.00 mm 82.82 W/m2
16:14 32.0 °C 21.0 °C 1008.9 hPa ENE 39 km/h 48 km/h 54% 0.00 mm 79.76 W/m2
16:19 32.0 °C 22.0 °C 1009.0 hPa North 24 km/h 40 km/h 55% 0.00 mm 71.56 W/m2
16:24 32.0 °C 22.0 °C 1009.1 hPa ENE 29 km/h 40 km/h 55% 0.00 mm 65.94 W/m2
16:29 32.0 °C 22.0 °C 1009.2 hPa East 24 km/h 40 km/h 56% 0.00 mm 65.45 W/m2
16:34 32.0 °C 22.0 °C 1009.1 hPa NE 24 km/h 40 km/h 56% 0.00 mm 64.10 W/m2
16:39 32.0 °C 22.0 °C 1009.1 hPa NE 19 km/h 24 km/h 57% 0.00 mm 57.25 W/m2
16:44 32.0 °C 22.0 °C 1009.1 hPa NE 27 km/h 40 km/h 57% 0.00 mm 55.05 W/m2
16:49 31.0 °C 22.0 °C 1009.1 hPa NE 21 km/h 28 km/h 57% 0.00 mm 43.80 W/m2
16:54 31.0 °C 22.0 °C 1009.2 hPa NNE 24 km/h 36 km/h 58% 0.00 mm 35.11 W/m2
16:59 31.0 °C 22.0 °C 1009.3 hPa ENE 22 km/h 32 km/h 58% 0.00 mm 34.25 W/m2
17:04 31.0 °C 22.0 °C 1009.3 hPa NE 17 km/h 32 km/h 58% 0.00 mm 24.71 W/m2
17:09 31.0 °C 22.0 °C 1009.2 hPa ENE 15 km/h 24 km/h 58% 0.00 mm 19.94 W/m2
17:14 31.0 °C 22.0 °C 1009.3 hPa NNE 17 km/h 28 km/h 58% 0.00 mm 13.33 W/m2
17:19 31.0 °C 22.0 °C 1009.3 hPa NE 20 km/h 40 km/h 59% 0.00 mm 9.05 W/m2
17:24 31.0 °C 22.0 °C 1009.5 hPa NE 17 km/h 24 km/h 60% 0.00 mm 5.99 W/m2
17:29 31.0 °C 22.0 °C 1009.4 hPa NE 18 km/h 28 km/h 60% 0.00 mm 1.71 W/m2
17:34 31.0 °C 22.0 °C 1009.5 hPa NE 15 km/h 24 km/h 61% 0.00 mm 0.00 W/m2
17:39 31.0 °C 22.0 °C 1009.5 hPa NNE 13 km/h 20 km/h 61% 0.00 mm 0.00 W/m2
17:44 31.0 °C 22.0 °C 1009.7 hPa North 12 km/h 24 km/h 61% 0.00 mm 0.00 W/m2
17:49 31.0 °C 23.0 °C 1009.7 hPa North 10 km/h 16 km/h 62% 0.00 mm 0.00 W/m2
17:54 31.0 °C 22.0 °C 1009.9 hPa North 12 km/h 20 km/h 62% 0.00 mm 0.00 W/m2
17:59 31.0 °C 22.0 °C 1009.9 hPa North 19 km/h 24 km/h 62% 0.00 mm 0.00 W/m2
18:04 30.0 °C 23.0 °C 1010.0 hPa NNE 13 km/h 20 km/h 63% 0.00 mm 0.00 W/m2
18:09 30.0 °C 23.0 °C 1009.9 hPa North 18 km/h 32 km/h 63% 0.00 mm 0.00 W/m2
18:14 30.0 °C 22.0 °C 1009.9 hPa NE 11 km/h 16 km/h 63% 0.00 mm 0.00 W/m2
18:19 30.0 °C 23.0 °C 1009.9 hPa NNE 10 km/h 12 km/h 64% 0.00 mm 0.00 W/m2
18:24 30.0 °C 23.0 °C 1009.9 hPa North 13 km/h 20 km/h 64% 0.00 mm 0.00 W/m2
18:29 30.0 °C 23.0 °C 1010.1 hPa NNE 9 km/h 12 km/h 64% 0.00 mm 0.00 W/m2
18:34 30.0 °C 23.0 °C 1010.1 hPa North 10 km/h 16 km/h 64% 0.00 mm 0.00 W/m2
18:39 30.0 °C 23.0 °C 1010.2 hPa NNE 12 km/h 16 km/h 64% 0.00 mm 0.00 W/m2
18:44 30.0 °C 23.0 °C 1010.5 hPa NNE 20 km/h 32 km/h 65% 0.00 mm 0.00 W/m2
18:49 30.0 °C 23.0 °C 1010.5 hPa NNE 14 km/h 20 km/h 65% 0.00 mm 0.00 W/m2
18:54 30.0 °C 23.0 °C 1010.7 hPa NE 17 km/h 20 km/h 65% 0.00 mm 0.00 W/m2
18:59 30.0 °C 24.0 °C 1011.1 hPa East 38 km/h 53 km/h 73% 0.00 mm 0.00 W/m2
19:04 29.0 °C 24.0 °C 1011.1 hPa NNW 15 km/h 24 km/h 78% 1.80 mm 0.00 W/m2
19:09 27.0 °C 23.0 °C 1011.1 hPa ESE 26 km/h 36 km/h 79% 1.80 mm 0.00 W/m2
19:14 27.0 °C 23.0 °C 1011.4 hPa ENE 20 km/h 28 km/h 79% 1.80 mm 0.00 W/m2
19:19 27.0 °C 23.0 °C 1011.4 hPa ENE 24 km/h 36 km/h 78% 0.00 mm 0.00 W/m2
19:24 27.0 °C 23.0 °C 1011.4 hPa NE 18 km/h 32 km/h 79% 0.00 mm 0.00 W/m2
19:29 27.0 °C 23.0 °C 1011.3 hPa North 18 km/h 24 km/h 80% 0.00 mm 0.00 W/m2
19:34 27.0 °C 23.0 °C 1011.3 hPa North 25 km/h 32 km/h 80% 1.80 mm 0.00 W/m2
19:39 26.0 °C 23.0 °C 1011.2 hPa North 13 km/h 16 km/h 81% 1.80 mm 0.00 W/m2
19:44 26.0 °C 23.0 °C 1011.2 hPa North 10 km/h 12 km/h 80% 1.80 mm 0.00 W/m2
19:49 27.0 °C 23.0 °C 1011.3 hPa North 9 km/h 12 km/h 81% 0.00 mm 0.00 W/m2
19:54 27.0 °C 23.0 °C 1011.2 hPa NNE 10 km/h 12 km/h 80% 0.00 mm 0.00 W/m2
19:59 27.0 °C 23.0 °C 1011.1 hPa North 10 km/h 16 km/h 80% 0.00 mm 0.00 W/m2
20:04 27.0 °C 23.0 °C 1011.0 hPa NE 13 km/h 16 km/h 79% 0.00 mm 0.00 W/m2
20:09 27.0 °C 23.0 °C 1011.0 hPa North 10 km/h 16 km/h 77% 0.00 mm 0.00 W/m2
20:19 27.0 °C 23.0 °C 1010.9 hPa North 10 km/h 16 km/h 76% 0.00 mm 0.00 W/m2
20:24 27.0 °C 23.0 °C 1011.0 hPa ENE 10 km/h 12 km/h 76% 0.00 mm 0.00 W/m2
20:29 28.0 °C 23.0 °C 1011.0 hPa ENE 15 km/h 16 km/h 74% 0.00 mm 0.00 W/m2
20:34 28.0 °C 23.0 °C 1011.0 hPa ENE 10 km/h 12 km/h 74% 0.00 mm 0.00 W/m2
20:39 28.0 °C 23.0 °C 1011.1 hPa ENE 8 km/h 12 km/h 74% 0.00 mm 0.00 W/m2
20:44 28.0 °C 23.0 °C 1011.0 hPa NE 4 km/h 8 km/h 74% 0.00 mm 0.00 W/m2
20:49 28.0 °C 23.0 °C 1011.2 hPa NE 4 km/h 4 km/h 74% 0.00 mm 0.00 W/m2
20:54 28.0 °C 23.0 °C 1011.2 hPa NNE 4 km/h 4 km/h 74% 0.00 mm 0.00 W/m2
20:59 28.0 °C 23.0 °C 1011.3 hPa NE 9 km/h 12 km/h 74% 0.00 mm 0.00 W/m2
21:04 28.0 °C 23.0 °C 1011.4 hPa NE 12 km/h 20 km/h 73% 0.00 mm 0.00 W/m2
21:09 28.0 °C 23.0 °C 1011.5 hPa North 8 km/h 12 km/h 73% 0.00 mm 0.00 W/m2
21:14 28.0 °C 23.0 °C 1011.8 hPa NE 15 km/h 20 km/h 73% 0.00 mm 0.00 W/m2
21:19 28.0 °C 23.0 °C 1011.6 hPa ENE 13 km/h 16 km/h 73% 0.00 mm 0.00 W/m2
21:24 28.0 °C 23.0 °C 1011.4 hPa ENE 10 km/h 12 km/h 74% 0.00 mm 0.00 W/m2
21:29 28.0 °C 23.0 °C 1011.6 hPa NNE 11 km/h 12 km/h 74% 0.00 mm 0.00 W/m2
21:34 28.0 °C 23.0 °C 1011.5 hPa North 8 km/h 12 km/h 74% 0.00 mm 0.00 W/m2
21:39 28.0 °C 23.0 °C 1011.5 hPa NNE 8 km/h 12 km/h 75% 0.00 mm 0.00 W/m2
21:44 28.0 °C 23.0 °C 1011.8 hPa North 10 km/h 16 km/h 75% 0.00 mm 0.00 W/m2
21:49 28.0 °C 23.0 °C 1011.8 hPa North 9 km/h 16 km/h 75% 0.00 mm 0.00 W/m2
21:54 28.0 °C 23.0 °C 1011.6 hPa NE 6 km/h 12 km/h 75% 0.00 mm 0.00 W/m2
21:59 28.0 °C 23.0 °C 1011.6 hPa ENE 10 km/h 12 km/h 75% 0.00 mm 0.00 W/m2
22:04 27.0 °C 23.0 °C 1011.6 hPa ENE 12 km/h 20 km/h 77% 1.80 mm 0.00 W/m2
22:09 27.0 °C 23.0 °C 1011.5 hPa North 9 km/h 12 km/h 78% 1.80 mm 0.00 W/m2
22:14 27.0 °C 23.0 °C 1011.5 hPa ENE 10 km/h 12 km/h 77% 1.80 mm 0.00 W/m2
22:19 27.0 °C 23.0 °C 1011.5 hPa ENE 10 km/h 12 km/h 77% 0.00 mm 0.00 W/m2
22:24 27.0 °C 23.0 °C 1011.7 hPa ENE 7 km/h 8 km/h 78% 0.00 mm 0.00 W/m2
22:29 27.0 °C 23.0 °C 1011.6 hPa NE 5 km/h 8 km/h 78% 0.00 mm 0.00 W/m2
22:34 27.0 °C 23.0 °C 1011.6 hPa NNE 8 km/h 12 km/h 78% 0.00 mm 0.00 W/m2
22:39 27.0 °C 23.0 °C 1011.5 hPa NNE 6 km/h 8 km/h 78% 0.00 mm 0.00 W/m2
22:44 27.0 °C 23.0 °C 1011.6 hPa North 8 km/h 8 km/h 77% 0.00 mm 0.00 W/m2
22:49 27.0 °C 23.0 °C 1011.8 hPa North 10 km/h 12 km/h 76% 0.00 mm 0.00 W/m2
22:54 27.0 °C 23.0 °C 1011.7 hPa North 11 km/h 12 km/h 77% 0.00 mm 0.00 W/m2
22:59 27.0 °C 23.0 °C 1011.7 hPa North 9 km/h 12 km/h 77% 0.00 mm 0.00 W/m2
23:04 27.0 °C 23.0 °C 1011.7 hPa North 7 km/h 8 km/h 77% 0.00 mm 0.00 W/m2
23:09 27.0 °C 23.0 °C 1011.6 hPa North 5 km/h 8 km/h 77% 0.00 mm 0.00 W/m2
23:14 27.0 °C 23.0 °C 1011.4 hPa North 13 km/h 16 km/h 76% 0.00 mm 0.00 W/m2
23:19 27.0 °C 23.0 °C 1011.4 hPa North 9 km/h 12 km/h 75% 0.00 mm 0.00 W/m2
23:24 27.0 °C 23.0 °C 1011.3 hPa North 15 km/h 16 km/h 75% 0.00 mm 0.00 W/m2
23:29 27.0 °C 23.0 °C 1011.4 hPa North 6 km/h 8 km/h 75% 0.00 mm 0.00 W/m2
23:34 27.0 °C 23.0 °C 1011.3 hPa North 10 km/h 12 km/h 75% 0.00 mm 0.00 W/m2
23:39 27.0 °C 23.0 °C 1011.4 hPa North 9 km/h 12 km/h 75% 0.00 mm 0.00 W/m2
23:44 27.0 °C 22.0 °C 1011.4 hPa North 10 km/h 12 km/h 74% 0.00 mm 0.00 W/m2
23:49 27.0 °C 22.0 °C 1011.3 hPa NNE 9 km/h 16 km/h 74% 0.00 mm 0.00 W/m2
23:54 27.0 °C 22.0 °C 1011.3 hPa NNE 10 km/h 12 km/h 73% 0.00 mm 0.00 W/m2
23:59 27.0 °C 22.0 °C 1011.2 hPa North 10 km/h 16 km/h 73% 0.00 mm 0.00 W/m2
PIMOHWEATHER Philippines
Compliments of Weather Underground - 2 mb